sensor_id;sensor_type;location;lat;lon;timestamp;P1;durP1;ratioP1;P2;durP2;ratioP2
10450;SDS011;5273;51.290;6.918;2023-12-20T00:02:01;15.47;;;6.83;;
10450;SDS011;5273;51.290;6.918;2023-12-20T00:04:27;18.33;;;7.30;;
10450;SDS011;5273;51.290;6.918;2023-12-20T00:06:54;20.73;;;7.73;;
10450;SDS011;5273;51.290;6.918;2023-12-20T00:09:21;15.87;;;7.40;;
10450;SDS011;5273;51.290;6.918;2023-12-20T00:11:48;14.63;;;7.17;;
10450;SDS011;5273;51.290;6.918;2023-12-20T00:14:16;17.77;;;8.13;;
10450;SDS011;5273;51.290;6.918;2023-12-20T00:16:43;17.63;;;8.40;;
10450;SDS011;5273;51.290;6.918;2023-12-20T00:19:09;22.83;;;9.20;;
10450;SDS011;5273;51.290;6.918;2023-12-20T00:21:36;18.73;;;8.03;;
10450;SDS011;5273;51.290;6.918;2023-12-20T00:24:03;17.50;;;8.53;;
10450;SDS011;5273;51.290;6.918;2023-12-20T00:26:31;18.30;;;7.93;;
10450;SDS011;5273;51.290;6.918;2023-12-20T00:28:57;17.07;;;7.93;;
10450;SDS011;5273;51.290;6.918;2023-12-20T00:31:26;15.10;;;7.30;;
10450;SDS011;5273;51.290;6.918;2023-12-20T00:33:52;19.47;;;7.67;;
10450;SDS011;5273;51.290;6.918;2023-12-20T00:36:19;22.87;;;8.50;;
10450;SDS011;5273;51.290;6.918;2023-12-20T00:38:46;20.90;;;8.30;;
10450;SDS011;5273;51.290;6.918;2023-12-20T00:41:15;17.40;;;8.07;;
10450;SDS011;5273;51.290;6.918;2023-12-20T00:43:41;19.70;;;8.17;;
10450;SDS011;5273;51.290;6.918;2023-12-20T00:46:09;18.47;;;9.00;;
10450;SDS011;5273;51.290;6.918;2023-12-20T00:48:37;29.90;;;8.87;;
10450;SDS011;5273;51.290;6.918;2023-12-20T00:51:07;20.33;;;8.30;;
10450;SDS011;5273;51.290;6.918;2023-12-20T00:53:34;19.93;;;8.57;;
10450;SDS011;5273;51.290;6.918;2023-12-20T00:56:01;20.03;;;8.17;;
10450;SDS011;5273;51.290;6.918;2023-12-20T00:58:28;20.80;;;8.80;;
10450;SDS011;5273;51.290;6.918;2023-12-20T01:00:54;25.23;;;9.43;;
10450;SDS011;5273;51.290;6.918;2023-12-20T01:03:21;23.37;;;9.17;;
10450;SDS011;5273;51.290;6.918;2023-12-20T01:05:50;21.27;;;8.43;;
10450;SDS011;5273;51.290;6.918;2023-12-20T01:08:16;16.80;;;8.63;;
10450;SDS011;5273;51.290;6.918;2023-12-20T01:10:43;21.97;;;8.40;;
10450;SDS011;5273;51.290;6.918;2023-12-20T01:13:11;21.80;;;8.63;;
10450;SDS011;5273;51.290;6.918;2023-12-20T01:15:38;24.07;;;9.70;;
10450;SDS011;5273;51.290;6.918;2023-12-20T01:18:05;20.63;;;8.60;;
10450;SDS011;5273;51.290;6.918;2023-12-20T01:20:32;25.47;;;10.10;;
10450;SDS011;5273;51.290;6.918;2023-12-20T01:23:00;23.17;;;10.43;;
10450;SDS011;5273;51.290;6.918;2023-12-20T01:25:27;22.77;;;9.63;;
10450;SDS011;5273;51.290;6.918;2023-12-20T01:27:54;20.83;;;9.83;;
10450;SDS011;5273;51.290;6.918;2023-12-20T01:30:20;25.30;;;11.63;;
10450;SDS011;5273;51.290;6.918;2023-12-20T01:32:47;27.57;;;11.30;;
10450;SDS011;5273;51.290;6.918;2023-12-20T01:35:14;28.27;;;11.90;;
10450;SDS011;5273;51.290;6.918;2023-12-20T01:37:41;25.67;;;11.37;;
10450;SDS011;5273;51.290;6.918;2023-12-20T01:40:09;27.80;;;11.67;;
10450;SDS011;5273;51.290;6.918;2023-12-20T01:42:37;27.60;;;12.90;;
10450;SDS011;5273;51.290;6.918;2023-12-20T01:45:04;29.43;;;13.57;;
10450;SDS011;5273;51.290;6.918;2023-12-20T01:47:31;31.23;;;13.53;;
10450;SDS011;5273;51.290;6.918;2023-12-20T01:49:58;24.93;;;14.30;;
10450;SDS011;5273;51.290;6.918;2023-12-20T01:52:25;26.57;;;14.77;;
10450;SDS011;5273;51.290;6.918;2023-12-20T01:54:53;30.37;;;14.67;;
10450;SDS011;5273;51.290;6.918;2023-12-20T01:57:27;27.47;;;15.60;;
10450;SDS011;5273;51.290;6.918;2023-12-20T01:59:54;29.67;;;14.97;;
10450;SDS011;5273;51.290;6.918;2023-12-20T02:02:21;33.50;;;14.37;;
10450;SDS011;5273;51.290;6.918;2023-12-20T02:04:48;27.90;;;14.70;;
10450;SDS011;5273;51.290;6.918;2023-12-20T02:07:16;27.27;;;15.13;;
10450;SDS011;5273;51.290;6.918;2023-12-20T02:09:44;28.87;;;15.20;;
10450;SDS011;5273;51.290;6.918;2023-12-20T02:12:11;32.17;;;15.47;;
10450;SDS011;5273;51.290;6.918;2023-12-20T02:14:39;28.13;;;14.00;;
10450;SDS011;5273;51.290;6.918;2023-12-20T02:17:06;24.97;;;13.73;;
10450;SDS011;5273;51.290;6.918;2023-12-20T02:19:33;25.20;;;13.27;;
10450;SDS011;5273;51.290;6.918;2023-12-20T02:22:07;31.20;;;13.70;;
10450;SDS011;5273;51.290;6.918;2023-12-20T02:24:35;29.80;;;13.03;;
10450;SDS011;5273;51.290;6.918;2023-12-20T02:27:02;25.87;;;12.87;;
10450;SDS011;5273;51.290;6.918;2023-12-20T02:29:31;25.33;;;11.83;;
10450;SDS011;5273;51.290;6.918;2023-12-20T02:31:58;26.23;;;12.23;;
10450;SDS011;5273;51.290;6.918;2023-12-20T02:34:25;28.97;;;11.30;;
10450;SDS011;5273;51.290;6.918;2023-12-20T02:36:52;22.77;;;11.73;;
10450;SDS011;5273;51.290;6.918;2023-12-20T02:39:20;31.70;;;11.43;;
10450;SDS011;5273;51.290;6.918;2023-12-20T02:41:48;27.97;;;12.37;;
10450;SDS011;5273;51.290;6.918;2023-12-20T02:44:14;25.13;;;12.30;;
10450;SDS011;5273;51.290;6.918;2023-12-20T02:46:41;24.00;;;10.90;;
10450;SDS011;5273;51.290;6.918;2023-12-20T02:49:08;25.63;;;10.43;;
10450;SDS011;5273;51.290;6.918;2023-12-20T02:51:35;23.90;;;11.10;;
10450;SDS011;5273;51.290;6.918;2023-12-20T02:54:03;27.43;;;10.17;;
10450;SDS011;5273;51.290;6.918;2023-12-20T02:56:32;26.10;;;9.77;;
10450;SDS011;5273;51.290;6.918;2023-12-20T02:58:58;29.30;;;10.20;;
10450;SDS011;5273;51.290;6.918;2023-12-20T03:01:26;28.63;;;11.03;;
10450;SDS011;5273;51.290;6.918;2023-12-20T03:03:53;25.70;;;9.73;;
10450;SDS011;5273;51.290;6.918;2023-12-20T03:06:20;21.27;;;9.20;;
10450;SDS011;5273;51.290;6.918;2023-12-20T03:08:47;23.97;;;9.00;;
10450;SDS011;5273;51.290;6.918;2023-12-20T03:11:13;27.47;;;9.40;;
10450;SDS011;5273;51.290;6.918;2023-12-20T03:13:42;17.83;;;7.87;;
10450;SDS011;5273;51.290;6.918;2023-12-20T03:16:09;17.40;;;8.47;;
10450;SDS011;5273;51.290;6.918;2023-12-20T03:18:36;22.07;;;8.27;;
10450;SDS011;5273;51.290;6.918;2023-12-20T03:21:03;18.07;;;6.20;;
10450;SDS011;5273;51.290;6.918;2023-12-20T03:23:31;19.50;;;5.77;;
10450;SDS011;5273;51.290;6.918;2023-12-20T03:25:58;15.37;;;5.90;;
10450;SDS011;5273;51.290;6.918;2023-12-20T03:28:26;19.93;;;5.97;;
10450;SDS011;5273;51.290;6.918;2023-12-20T03:30:55;21.73;;;5.67;;
10450;SDS011;5273;51.290;6.918;2023-12-20T03:33:21;11.13;;;4.70;;
10450;SDS011;5273;51.290;6.918;2023-12-20T03:35:48;18.47;;;4.80;;
10450;SDS011;5273;51.290;6.918;2023-12-20T03:38:15;18.77;;;5.43;;
10450;SDS011;5273;51.290;6.918;2023-12-20T03:40:42;16.00;;;4.83;;
10450;SDS011;5273;51.290;6.918;2023-12-20T03:43:09;18.93;;;5.17;;
10450;SDS011;5273;51.290;6.918;2023-12-20T03:45:36;14.63;;;5.47;;
10450;SDS011;5273;51.290;6.918;2023-12-20T03:48:04;18.90;;;4.70;;
10450;SDS011;5273;51.290;6.918;2023-12-20T03:50:32;14.67;;;4.63;;
10450;SDS011;5273;51.290;6.918;2023-12-20T03:52:58;9.20;;;3.93;;
10450;SDS011;5273;51.290;6.918;2023-12-20T03:55:25;12.70;;;4.40;;
10450;SDS011;5273;51.290;6.918;2023-12-20T03:57:52;20.77;;;4.87;;
10450;SDS011;5273;51.290;6.918;2023-12-20T04:00:19;18.10;;;4.87;;
10450;SDS011;5273;51.290;6.918;2023-12-20T04:02:46;19.23;;;4.93;;
10450;SDS011;5273;51.290;6.918;2023-12-20T04:05:14;18.97;;;4.60;;
10450;SDS011;5273;51.290;6.918;2023-12-20T04:07:40;16.60;;;4.10;;
10450;SDS011;5273;51.290;6.918;2023-12-20T04:10:07;15.23;;;4.27;;
10450;SDS011;5273;51.290;6.918;2023-12-20T04:12:34;14.33;;;4.30;;
10450;SDS011;5273;51.290;6.918;2023-12-20T04:15:01;14.60;;;4.20;;
10450;SDS011;5273;51.290;6.918;2023-12-20T04:17:33;19.53;;;4.40;;
10450;SDS011;5273;51.290;6.918;2023-12-20T04:20:00;13.93;;;4.57;;
10450;SDS011;5273;51.290;6.918;2023-12-20T04:22:29;14.10;;;4.60;;
10450;SDS011;5273;51.290;6.918;2023-12-20T04:24:55;19.47;;;5.23;;
10450;SDS011;5273;51.290;6.918;2023-12-20T04:27:22;21.83;;;4.90;;
10450;SDS011;5273;51.290;6.918;2023-12-20T04:29:49;17.93;;;5.77;;
10450;SDS011;5273;51.290;6.918;2023-12-20T04:32:16;20.43;;;5.57;;
10450;SDS011;5273;51.290;6.918;2023-12-20T04:34:43;19.17;;;5.33;;
10450;SDS011;5273;51.290;6.918;2023-12-20T04:37:09;16.67;;;5.37;;
10450;SDS011;5273;51.290;6.918;2023-12-20T04:39:38;14.03;;;5.50;;
10450;SDS011;5273;51.290;6.918;2023-12-20T04:42:06;27.67;;;6.97;;
10450;SDS011;5273;51.290;6.918;2023-12-20T04:44:33;19.00;;;5.90;;
10450;SDS011;5273;51.290;6.918;2023-12-20T04:47:00;17.40;;;5.80;;
10450;SDS011;5273;51.290;6.918;2023-12-20T04:49:26;17.23;;;5.60;;
10450;SDS011;5273;51.290;6.918;2023-12-20T04:51:53;20.17;;;6.47;;
10450;SDS011;5273;51.290;6.918;2023-12-20T04:54:20;18.77;;;5.97;;
10450;SDS011;5273;51.290;6.918;2023-12-20T04:56:49;19.40;;;6.47;;
10450;SDS011;5273;51.290;6.918;2023-12-20T04:59:16;19.00;;;6.50;;
10450;SDS011;5273;51.290;6.918;2023-12-20T05:01:42;22.07;;;6.53;;
10450;SDS011;5273;51.290;6.918;2023-12-20T05:04:09;22.60;;;7.47;;
10450;SDS011;5273;51.290;6.918;2023-12-20T05:06:36;19.43;;;7.40;;
10450;SDS011;5273;51.290;6.918;2023-12-20T05:09:03;19.77;;;7.07;;
10450;SDS011;5273;51.290;6.918;2023-12-20T05:11:30;18.83;;;8.23;;
10450;SDS011;5273;51.290;6.918;2023-12-20T05:13:58;28.10;;;7.83;;
10450;SDS011;5273;51.290;6.918;2023-12-20T05:16:24;15.77;;;6.77;;
10450;SDS011;5273;51.290;6.918;2023-12-20T05:18:51;19.30;;;7.30;;
10450;SDS011;5273;51.290;6.918;2023-12-20T05:21:18;23.07;;;7.97;;
10450;SDS011;5273;51.290;6.918;2023-12-20T05:23:45;20.27;;;6.70;;
10450;SDS011;5273;51.290;6.918;2023-12-20T05:26:12;19.47;;;7.20;;
10450;SDS011;5273;51.290;6.918;2023-12-20T05:28:38;18.27;;;7.20;;
10450;SDS011;5273;51.290;6.918;2023-12-20T05:31:07;12.93;;;6.23;;
10450;SDS011;5273;51.290;6.918;2023-12-20T05:33:34;24.67;;;7.30;;
10450;SDS011;5273;51.290;6.918;2023-12-20T05:36:01;25.33;;;7.43;;
10450;SDS011;5273;51.290;6.918;2023-12-20T05:38:28;22.47;;;6.67;;
10450;SDS011;5273;51.290;6.918;2023-12-20T05:40:54;23.43;;;6.27;;
10450;SDS011;5273;51.290;6.918;2023-12-20T05:43:21;18.63;;;5.63;;
10450;SDS011;5273;51.290;6.918;2023-12-20T05:45:48;16.60;;;6.53;;
10450;SDS011;5273;51.290;6.918;2023-12-20T05:48:17;18.13;;;5.73;;
10450;SDS011;5273;51.290;6.918;2023-12-20T05:50:43;23.60;;;5.70;;
10450;SDS011;5273;51.290;6.918;2023-12-20T05:53:10;17.50;;;5.93;;
10450;SDS011;5273;51.290;6.918;2023-12-20T05:55:37;17.33;;;6.33;;
10450;SDS011;5273;51.290;6.918;2023-12-20T05:58:04;16.87;;;5.80;;
10450;SDS011;5273;51.290;6.918;2023-12-20T06:00:31;20.30;;;6.23;;
10450;SDS011;5273;51.290;6.918;2023-12-20T06:02:58;16.93;;;6.57;;
10450;SDS011;5273;51.290;6.918;2023-12-20T06:05:26;22.77;;;6.10;;
10450;SDS011;5273;51.290;6.918;2023-12-20T06:07:53;23.17;;;6.10;;
10450;SDS011;5273;51.290;6.918;2023-12-20T06:10:21;19.83;;;5.47;;
10450;SDS011;5273;51.290;6.918;2023-12-20T06:12:48;20.27;;;6.37;;
10450;SDS011;5273;51.290;6.918;2023-12-20T06:15:16;20.57;;;6.53;;
10450;SDS011;5273;51.290;6.918;2023-12-20T06:17:43;19.13;;;6.37;;
10450;SDS011;5273;51.290;6.918;2023-12-20T06:20:10;21.97;;;6.17;;
10450;SDS011;5273;51.290;6.918;2023-12-20T06:22:39;18.97;;;5.70;;
10450;SDS011;5273;51.290;6.918;2023-12-20T06:25:06;21.03;;;6.00;;
10450;SDS011;5273;51.290;6.918;2023-12-20T06:27:33;20.43;;;6.03;;
10450;SDS011;5273;51.290;6.918;2023-12-20T06:30:00;18.90;;;6.13;;
10450;SDS011;5273;51.290;6.918;2023-12-20T06:32:27;22.27;;;5.93;;
10450;SDS011;5273;51.290;6.918;2023-12-20T06:34:55;19.97;;;6.40;;
10450;SDS011;5273;51.290;6.918;2023-12-20T06:37:22;18.77;;;6.23;;
10450;SDS011;5273;51.290;6.918;2023-12-20T06:39:50;23.57;;;6.80;;
10450;SDS011;5273;51.290;6.918;2023-12-20T06:42:17;19.93;;;7.07;;
10450;SDS011;5273;51.290;6.918;2023-12-20T06:44:44;13.07;;;5.97;;
10450;SDS011;5273;51.290;6.918;2023-12-20T06:47:10;20.67;;;6.67;;
10450;SDS011;5273;51.290;6.918;2023-12-20T06:49:39;15.60;;;6.17;;
10450;SDS011;5273;51.290;6.918;2023-12-20T06:52:05;19.77;;;6.57;;
10450;SDS011;5273;51.290;6.918;2023-12-20T06:54:33;18.67;;;6.77;;
10450;SDS011;5273;51.290;6.918;2023-12-20T06:57:01;19.73;;;6.27;;
10450;SDS011;5273;51.290;6.918;2023-12-20T06:59:29;14.93;;;6.40;;
10450;SDS011;5273;51.290;6.918;2023-12-20T07:01:56;16.73;;;6.60;;
10450;SDS011;5273;51.290;6.918;2023-12-20T07:04:23;20.07;;;6.23;;
10450;SDS011;5273;51.290;6.918;2023-12-20T07:06:50;22.33;;;5.70;;
10450;SDS011;5273;51.290;6.918;2023-12-20T07:09:18;18.20;;;6.27;;
10450;SDS011;5273;51.290;6.918;2023-12-20T07:11:45;21.03;;;6.50;;
10450;SDS011;5273;51.290;6.918;2023-12-20T07:14:14;14.37;;;6.37;;
10450;SDS011;5273;51.290;6.918;2023-12-20T07:16:41;16.13;;;6.20;;
10450;SDS011;5273;51.290;6.918;2023-12-20T07:19:07;20.77;;;6.30;;
10450;SDS011;5273;51.290;6.918;2023-12-20T07:21:34;21.23;;;6.40;;
10450;SDS011;5273;51.290;6.918;2023-12-20T07:24:01;19.10;;;6.83;;
10450;SDS011;5273;51.290;6.918;2023-12-20T07:26:28;14.33;;;5.60;;
10450;SDS011;5273;51.290;6.918;2023-12-20T07:28:55;20.17;;;6.90;;
10450;SDS011;5273;51.290;6.918;2023-12-20T07:31:25;23.13;;;7.03;;
10450;SDS011;5273;51.290;6.918;2023-12-20T07:33:51;20.20;;;6.33;;
10450;SDS011;5273;51.290;6.918;2023-12-20T07:36:19;20.57;;;6.57;;
10450;SDS011;5273;51.290;6.918;2023-12-20T07:38:46;21.77;;;6.37;;
10450;SDS011;5273;51.290;6.918;2023-12-20T07:41:13;19.07;;;5.57;;
10450;SDS011;5273;51.290;6.918;2023-12-20T07:43:40;18.70;;;6.00;;
10450;SDS011;5273;51.290;6.918;2023-12-20T07:46:08;16.90;;;6.43;;
10450;SDS011;5273;51.290;6.918;2023-12-20T07:48:36;16.80;;;6.03;;
10450;SDS011;5273;51.290;6.918;2023-12-20T07:51:04;16.20;;;5.97;;
10450;SDS011;5273;51.290;6.918;2023-12-20T07:53:33;17.67;;;5.77;;
10450;SDS011;5273;51.290;6.918;2023-12-20T07:56:00;21.93;;;5.80;;
10450;SDS011;5273;51.290;6.918;2023-12-20T07:58:27;17.13;;;7.07;;
10450;SDS011;5273;51.290;6.918;2023-12-20T08:00:55;18.13;;;6.00;;
10450;SDS011;5273;51.290;6.918;2023-12-20T08:03:21;24.97;;;6.17;;
10450;SDS011;5273;51.290;6.918;2023-12-20T08:05:50;18.73;;;6.23;;
10450;SDS011;5273;51.290;6.918;2023-12-20T08:08:17;19.70;;;6.30;;
10450;SDS011;5273;51.290;6.918;2023-12-20T08:10:43;21.97;;;6.50;;
10450;SDS011;5273;51.290;6.918;2023-12-20T08:13:10;16.70;;;5.87;;
10450;SDS011;5273;51.290;6.918;2023-12-20T08:15:37;18.47;;;6.07;;
10450;SDS011;5273;51.290;6.918;2023-12-20T08:18:04;17.47;;;6.00;;
10450;SDS011;5273;51.290;6.918;2023-12-20T08:20:31;22.63;;;7.30;;
10450;SDS011;5273;51.290;6.918;2023-12-20T08:22:59;17.33;;;6.30;;
10450;SDS011;5273;51.290;6.918;2023-12-20T08:25:26;23.20;;;6.63;;
10450;SDS011;5273;51.290;6.918;2023-12-20T08:27:53;20.50;;;5.53;;
10450;SDS011;5273;51.290;6.918;2023-12-20T08:30:20;14.27;;;5.60;;
10450;SDS011;5273;51.290;6.918;2023-12-20T08:32:47;15.10;;;5.53;;
10450;SDS011;5273;51.290;6.918;2023-12-20T08:35:14;17.77;;;5.27;;
10450;SDS011;5273;51.290;6.918;2023-12-20T08:37:40;17.50;;;6.20;;
10450;SDS011;5273;51.290;6.918;2023-12-20T08:40:09;16.93;;;5.70;;
10450;SDS011;5273;51.290;6.918;2023-12-20T08:42:36;18.03;;;5.47;;
10450;SDS011;5273;51.290;6.918;2023-12-20T08:45:04;17.97;;;5.53;;
10450;SDS011;5273;51.290;6.918;2023-12-20T08:47:31;17.00;;;5.23;;
10450;SDS011;5273;51.290;6.918;2023-12-20T08:49:58;19.73;;;4.97;;
10450;SDS011;5273;51.290;6.918;2023-12-20T08:52:26;17.30;;;5.03;;
10450;SDS011;5273;51.290;6.918;2023-12-20T08:54:54;14.83;;;4.97;;
10450;SDS011;5273;51.290;6.918;2023-12-20T08:57:22;12.57;;;5.20;;
10450;SDS011;5273;51.290;6.918;2023-12-20T08:59:50;15.93;;;5.00;;
10450;SDS011;5273;51.290;6.918;2023-12-20T09:02:17;22.07;;;6.07;;
10450;SDS011;5273;51.290;6.918;2023-12-20T09:04:44;16.10;;;4.77;;
10450;SDS011;5273;51.290;6.918;2023-12-20T09:07:20;20.27;;;5.00;;
10450;SDS011;5273;51.290;6.918;2023-12-20T09:09:48;15.37;;;4.67;;
10450;SDS011;5273;51.290;6.918;2023-12-20T09:12:15;13.67;;;5.27;;
10450;SDS011;5273;51.290;6.918;2023-12-20T09:14:44;13.40;;;4.53;;
10450;SDS011;5273;51.290;6.918;2023-12-20T09:17:11;13.63;;;4.20;;
10450;SDS011;5273;51.290;6.918;2023-12-20T09:19:38;15.63;;;4.57;;
10450;SDS011;5273;51.290;6.918;2023-12-20T09:22:05;22.07;;;3.93;;
10450;SDS011;5273;51.290;6.918;2023-12-20T09:24:32;16.37;;;3.93;;
10450;SDS011;5273;51.290;6.918;2023-12-20T09:26:59;14.57;;;4.27;;
10450;SDS011;5273;51.290;6.918;2023-12-20T09:29:26;20.17;;;4.70;;
10450;SDS011;5273;51.290;6.918;2023-12-20T09:31:54;16.97;;;4.23;;
10450;SDS011;5273;51.290;6.918;2023-12-20T09:34:22;15.33;;;3.83;;
10450;SDS011;5273;51.290;6.918;2023-12-20T09:36:50;19.13;;;4.23;;
10450;SDS011;5273;51.290;6.918;2023-12-20T09:39:18;11.47;;;3.73;;
10450;SDS011;5273;51.290;6.918;2023-12-20T09:41:45;15.03;;;3.90;;
10450;SDS011;5273;51.290;6.918;2023-12-20T09:44:18;11.47;;;4.60;;
10450;SDS011;5273;51.290;6.918;2023-12-20T09:46:45;16.27;;;3.93;;
10450;SDS011;5273;51.290;6.918;2023-12-20T09:49:17;11.47;;;3.80;;
10450;SDS011;5273;51.290;6.918;2023-12-20T09:51:45;15.10;;;4.03;;
10450;SDS011;5273;51.290;6.918;2023-12-20T09:54:13;16.97;;;3.97;;
10450;SDS011;5273;51.290;6.918;2023-12-20T09:56:41;14.33;;;3.90;;
10450;SDS011;5273;51.290;6.918;2023-12-20T09:59:08;16.13;;;4.07;;
10450;SDS011;5273;51.290;6.918;2023-12-20T10:01:35;15.57;;;4.37;;
10450;SDS011;5273;51.290;6.918;2023-12-20T10:04:05;16.97;;;3.93;;
10450;SDS011;5273;51.290;6.918;2023-12-20T10:06:35;11.90;;;3.90;;
10450;SDS011;5273;51.290;6.918;2023-12-20T10:09:02;12.37;;;4.87;;
10450;SDS011;5273;51.290;6.918;2023-12-20T10:11:30;17.60;;;4.03;;
10450;SDS011;5273;51.290;6.918;2023-12-20T10:13:58;11.90;;;3.80;;
10450;SDS011;5273;51.290;6.918;2023-12-20T10:16:26;13.13;;;3.93;;
10450;SDS011;5273;51.290;6.918;2023-12-20T10:18:53;12.43;;;3.50;;
10450;SDS011;5273;51.290;6.918;2023-12-20T10:21:20;16.10;;;3.90;;
10450;SDS011;5273;51.290;6.918;2023-12-20T10:23:49;15.70;;;3.80;;
10450;SDS011;5273;51.290;6.918;2023-12-20T10:26:19;15.23;;;3.97;;
10450;SDS011;5273;51.290;6.918;2023-12-20T10:28:46;17.03;;;3.63;;
10450;SDS011;5273;51.290;6.918;2023-12-20T10:31:25;13.47;;;3.60;;
10450;SDS011;5273;51.290;6.918;2023-12-20T10:33:53;12.47;;;3.77;;
10450;SDS011;5273;51.290;6.918;2023-12-20T10:36:22;15.67;;;4.03;;
10450;SDS011;5273;51.290;6.918;2023-12-20T10:38:53;12.27;;;3.97;;
10450;SDS011;5273;51.290;6.918;2023-12-20T10:41:24;8.93;;;3.80;;
10450;SDS011;5273;51.290;6.918;2023-12-20T10:43:53;17.67;;;3.80;;
10450;SDS011;5273;51.290;6.918;2023-12-20T10:46:22;16.20;;;4.27;;
10450;SDS011;5273;51.290;6.918;2023-12-20T10:48:51;12.57;;;4.00;;
10450;SDS011;5273;51.290;6.918;2023-12-20T10:51:19;12.07;;;3.90;;
10450;SDS011;5273;51.290;6.918;2023-12-20T10:53:47;15.60;;;4.53;;
10450;SDS011;5273;51.290;6.918;2023-12-20T10:56:17;13.23;;;3.90;;
10450;SDS011;5273;51.290;6.918;2023-12-20T10:58:44;12.93;;;4.40;;
10450;SDS011;5273;51.290;6.918;2023-12-20T11:01:13;18.50;;;4.40;;
10450;SDS011;5273;51.290;6.918;2023-12-20T11:03:43;8.67;;;3.23;;
10450;SDS011;5273;51.290;6.918;2023-12-20T11:06:15;13.43;;;3.67;;
10450;SDS011;5273;51.290;6.918;2023-12-20T11:08:53;14.40;;;3.90;;
10450;SDS011;5273;51.290;6.918;2023-12-20T11:11:35;8.87;;;3.50;;
10450;SDS011;5273;51.290;6.918;2023-12-20T11:14:12;12.70;;;3.80;;
10450;SDS011;5273;51.290;6.918;2023-12-20T11:16:42;13.33;;;3.53;;
10450;SDS011;5273;51.290;6.918;2023-12-20T11:19:09;14.00;;;3.83;;
10450;SDS011;5273;51.290;6.918;2023-12-20T11:21:39;10.60;;;4.17;;
10450;SDS011;5273;51.290;6.918;2023-12-20T11:24:06;13.87;;;3.60;;
10450;SDS011;5273;51.290;6.918;2023-12-20T11:26:35;10.60;;;3.97;;
10450;SDS011;5273;51.290;6.918;2023-12-20T11:31:57;19.60;;;3.77;;
10450;SDS011;5273;51.290;6.918;2023-12-20T11:34:26;18.80;;;3.73;;
10450;SDS011;5273;51.290;6.918;2023-12-20T11:36:56;13.47;;;4.17;;
10450;SDS011;5273;51.290;6.918;2023-12-20T11:39:24;13.87;;;3.70;;
10450;SDS011;5273;51.290;6.918;2023-12-20T11:41:55;14.93;;;4.13;;
10450;SDS011;5273;51.290;6.918;2023-12-20T11:44:25;14.03;;;3.90;;
10450;SDS011;5273;51.290;6.918;2023-12-20T11:46:52;13.80;;;4.00;;
10450;SDS011;5273;51.290;6.918;2023-12-20T11:49:22;10.03;;;4.00;;
10450;SDS011;5273;51.290;6.918;2023-12-20T11:51:50;10.07;;;3.37;;
10450;SDS011;5273;51.290;6.918;2023-12-20T11:54:17;14.03;;;4.10;;
10450;SDS011;5273;51.290;6.918;2023-12-20T11:56:44;8.93;;;3.60;;
10450;SDS011;5273;51.290;6.918;2023-12-20T11:59:12;12.37;;;3.80;;
10450;SDS011;5273;51.290;6.918;2023-12-20T12:01:40;20.80;;;3.97;;
10450;SDS011;5273;51.290;6.918;2023-12-20T12:04:13;11.40;;;3.97;;
10450;SDS011;5273;51.290;6.918;2023-12-20T12:06:40;10.53;;;4.07;;
10450;SDS011;5273;51.290;6.918;2023-12-20T12:09:07;13.53;;;3.53;;
10450;SDS011;5273;51.290;6.918;2023-12-20T12:11:35;17.53;;;4.07;;
10450;SDS011;5273;51.290;6.918;2023-12-20T12:14:01;15.03;;;4.33;;
10450;SDS011;5273;51.290;6.918;2023-12-20T12:16:30;17.33;;;4.10;;
10450;SDS011;5273;51.290;6.918;2023-12-20T12:18:57;13.57;;;4.40;;
10450;SDS011;5273;51.290;6.918;2023-12-20T12:21:25;12.77;;;4.00;;
10450;SDS011;5273;51.290;6.918;2023-12-20T12:23:52;11.73;;;4.07;;
10450;SDS011;5273;51.290;6.918;2023-12-20T12:26:19;12.53;;;4.50;;
10450;SDS011;5273;51.290;6.918;2023-12-20T12:28:46;12.33;;;3.63;;
10450;SDS011;5273;51.290;6.918;2023-12-20T12:31:13;12.63;;;3.90;;
10450;SDS011;5273;51.290;6.918;2023-12-20T12:33:43;18.27;;;4.93;;
10450;SDS011;5273;51.290;6.918;2023-12-20T12:36:10;17.23;;;4.73;;
10450;SDS011;5273;51.290;6.918;2023-12-20T12:38:37;17.73;;;4.03;;
10450;SDS011;5273;51.290;6.918;2023-12-20T12:41:04;13.37;;;4.63;;
10450;SDS011;5273;51.290;6.918;2023-12-20T12:43:32;13.40;;;3.90;;
10450;SDS011;5273;51.290;6.918;2023-12-20T12:45:59;12.30;;;5.00;;
10450;SDS011;5273;51.290;6.918;2023-12-20T12:48:26;13.00;;;4.70;;
10450;SDS011;5273;51.290;6.918;2023-12-20T12:50:55;18.53;;;4.50;;
10450;SDS011;5273;51.290;6.918;2023-12-20T12:53:24;13.07;;;4.40;;
10450;SDS011;5273;51.290;6.918;2023-12-20T12:55:51;11.97;;;4.47;;
10450;SDS011;5273;51.290;6.918;2023-12-20T12:58:18;12.40;;;4.83;;
10450;SDS011;5273;51.290;6.918;2023-12-20T13:00:45;13.07;;;4.70;;
10450;SDS011;5273;51.290;6.918;2023-12-20T13:03:12;18.20;;;5.13;;
10450;SDS011;5273;51.290;6.918;2023-12-20T13:05:39;14.37;;;4.73;;
10450;SDS011;5273;51.290;6.918;2023-12-20T13:08:07;17.43;;;4.50;;
10450;SDS011;5273;51.290;6.918;2023-12-20T13:10:36;16.63;;;4.77;;
10450;SDS011;5273;51.290;6.918;2023-12-20T13:13:03;13.00;;;5.40;;
10450;SDS011;5273;51.290;6.918;2023-12-20T13:15:30;14.40;;;5.43;;
10450;SDS011;5273;51.290;6.918;2023-12-20T13:17:57;11.47;;;4.40;;
10450;SDS011;5273;51.290;6.918;2023-12-20T13:20:25;11.70;;;5.27;;
10450;SDS011;5273;51.290;6.918;2023-12-20T13:22:51;16.33;;;5.10;;
10450;SDS011;5273;51.290;6.918;2023-12-20T13:25:20;12.73;;;5.57;;
10450;SDS011;5273;51.290;6.918;2023-12-20T13:27:46;16.10;;;5.07;;
10450;SDS011;5273;51.290;6.918;2023-12-20T13:30:13;10.67;;;5.13;;
10450;SDS011;5273;51.290;6.918;2023-12-20T13:32:41;12.60;;;5.20;;
10450;SDS011;5273;51.290;6.918;2023-12-20T13:35:07;19.60;;;5.60;;
10450;SDS011;5273;51.290;6.918;2023-12-20T13:37:34;13.00;;;5.37;;
10450;SDS011;5273;51.290;6.918;2023-12-20T13:40:03;15.67;;;5.77;;
10450;SDS011;5273;51.290;6.918;2023-12-20T13:42:32;13.10;;;5.53;;
10450;SDS011;5273;51.290;6.918;2023-12-20T13:44:59;17.17;;;6.07;;
10450;SDS011;5273;51.290;6.918;2023-12-20T13:47:26;15.93;;;6.33;;
10450;SDS011;5273;51.290;6.918;2023-12-20T13:49:54;24.40;;;6.30;;
10450;SDS011;5273;51.290;6.918;2023-12-20T13:52:21;22.23;;;6.03;;
10450;SDS011;5273;51.290;6.918;2023-12-20T13:54:48;13.37;;;5.77;;
10450;SDS011;5273;51.290;6.918;2023-12-20T13:57:15;12.90;;;5.40;;
10450;SDS011;5273;51.290;6.918;2023-12-20T13:59:44;13.20;;;5.40;;
10450;SDS011;5273;51.290;6.918;2023-12-20T14:02:10;15.43;;;5.47;;
10450;SDS011;5273;51.290;6.918;2023-12-20T14:04:38;14.43;;;6.63;;
10450;SDS011;5273;51.290;6.918;2023-12-20T14:07:05;15.17;;;5.40;;
10450;SDS011;5273;51.290;6.918;2023-12-20T14:09:33;13.50;;;6.07;;
10450;SDS011;5273;51.290;6.918;2023-12-20T14:12:00;13.23;;;5.90;;
10450;SDS011;5273;51.290;6.918;2023-12-20T14:14:27;17.93;;;6.67;;
10450;SDS011;5273;51.290;6.918;2023-12-20T14:16:55;14.60;;;6.03;;
10450;SDS011;5273;51.290;6.918;2023-12-20T14:19:21;13.53;;;6.90;;
10450;SDS011;5273;51.290;6.918;2023-12-20T14:21:48;13.60;;;6.17;;
10450;SDS011;5273;51.290;6.918;2023-12-20T14:24:15;10.57;;;6.07;;
10450;SDS011;5273;51.290;6.918;2023-12-20T14:26:42;15.63;;;6.53;;
10450;SDS011;5273;51.290;6.918;2023-12-20T14:29:09;18.63;;;5.90;;
10450;SDS011;5273;51.290;6.918;2023-12-20T14:31:35;16.13;;;5.30;;
10450;SDS011;5273;51.290;6.918;2023-12-20T14:34:05;14.17;;;5.90;;
10450;SDS011;5273;51.290;6.918;2023-12-20T14:36:32;12.97;;;5.57;;
10450;SDS011;5273;51.290;6.918;2023-12-20T14:38:58;14.67;;;5.43;;
10450;SDS011;5273;51.290;6.918;2023-12-20T14:41:26;14.93;;;6.00;;
10450;SDS011;5273;51.290;6.918;2023-12-20T14:43:53;14.20;;;5.47;;
10450;SDS011;5273;51.290;6.918;2023-12-20T14:46:20;9.40;;;5.10;;
10450;SDS011;5273;51.290;6.918;2023-12-20T14:48:47;14.03;;;5.40;;
10450;SDS011;5273;51.290;6.918;2023-12-20T14:51:16;11.27;;;5.20;;